sensor_id;sensor_type;location;lat;lon;timestamp;P1;durP1;ratioP1;P2;durP2;ratioP2
53899;SDS011;40509;32.858;-116.858;2023-04-25T00:00:07;4.95;;;2.40;;
53899;SDS011;40509;32.858;-116.858;2023-04-25T00:02:38;2.63;;;2.42;;
53899;SDS011;40509;32.858;-116.858;2023-04-25T00:05:06;2.17;;;1.98;;
53899;SDS011;40509;32.858;-116.858;2023-04-25T00:07:34;2.83;;;2.08;;
53899;SDS011;40509;32.858;-116.858;2023-04-25T00:10:01;4.93;;;2.63;;
53899;SDS011;40509;32.858;-116.858;2023-04-25T00:12:29;4.28;;;2.80;;
53899;SDS011;40509;32.858;-116.858;2023-04-25T00:14:56;2.83;;;2.25;;
53899;SDS011;40509;32.858;-116.858;2023-04-25T00:17:24;3.08;;;2.42;;
53899;SDS011;40509;32.858;-116.858;2023-04-25T00:19:52;2.60;;;1.95;;
53899;SDS011;40509;32.858;-116.858;2023-04-25T00:22:20;2.42;;;2.22;;
53899;SDS011;40509;32.858;-116.858;2023-04-25T00:24:47;5.03;;;3.38;;
53899;SDS011;40509;32.858;-116.858;2023-04-25T00:27:15;3.13;;;2.78;;
53899;SDS011;40509;32.858;-116.858;2023-04-25T00:29:42;2.97;;;2.20;;
53899;SDS011;40509;32.858;-116.858;2023-04-25T00:32:09;5.38;;;2.63;;
53899;SDS011;40509;32.858;-116.858;2023-04-25T00:34:37;3.22;;;2.47;;
53899;SDS011;40509;32.858;-116.858;2023-04-25T00:37:04;8.45;;;2.75;;
53899;SDS011;40509;32.858;-116.858;2023-04-25T00:39:32;7.68;;;3.20;;
53899;SDS011;40509;32.858;-116.858;2023-04-25T00:41:59;4.53;;;3.40;;
53899;SDS011;40509;32.858;-116.858;2023-04-25T00:44:29;32.70;;;3.47;;
53899;SDS011;40509;32.858;-116.858;2023-04-25T00:46:58;14.07;;;2.65;;
53899;SDS011;40509;32.858;-116.858;2023-04-25T00:49:28;17.98;;;5.03;;
53899;SDS011;40509;32.858;-116.858;2023-04-25T00:51:56;17.73;;;4.95;;
53899;SDS011;40509;32.858;-116.858;2023-04-25T00:54:23;26.88;;;5.65;;
53899;SDS011;40509;32.858;-116.858;2023-04-25T01:00:19;8.52;;;3.08;;
53899;SDS011;40509;32.858;-116.858;2023-04-25T01:02:47;14.95;;;3.58;;
53899;SDS011;40509;32.858;-116.858;2023-04-25T01:05:16;17.88;;;3.53;;
53899;SDS011;40509;32.858;-116.858;2023-04-25T01:07:45;14.27;;;4.82;;
53899;SDS011;40509;32.858;-116.858;2023-04-25T01:10:13;10.65;;;4.93;;
53899;SDS011;40509;32.858;-116.858;2023-04-25T01:12:41;6.82;;;3.92;;
53899;SDS011;40509;32.858;-116.858;2023-04-25T01:15:08;20.95;;;4.65;;
53899;SDS011;40509;32.858;-116.858;2023-04-25T01:17:36;5.40;;;4.22;;
53899;SDS011;40509;32.858;-116.858;2023-04-25T01:20:04;14.18;;;4.10;;
53899;SDS011;40509;32.858;-116.858;2023-04-25T01:22:32;11.48;;;3.90;;
53899;SDS011;40509;32.858;-116.858;2023-04-25T01:25:00;9.52;;;4.60;;
53899;SDS011;40509;32.858;-116.858;2023-04-25T01:27:29;10.80;;;3.80;;
53899;SDS011;40509;32.858;-116.858;2023-04-25T01:29:56;13.70;;;5.30;;
53899;SDS011;40509;32.858;-116.858;2023-04-25T01:32:24;12.07;;;5.35;;
53899;SDS011;40509;32.858;-116.858;2023-04-25T01:34:54;7.45;;;4.10;;
53899;SDS011;40509;32.858;-116.858;2023-04-25T01:37:22;20.48;;;4.03;;
53899;SDS011;40509;32.858;-116.858;2023-04-25T01:39:49;18.90;;;5.15;;
53899;SDS011;40509;32.858;-116.858;2023-04-25T01:42:17;10.48;;;4.32;;
53899;SDS011;40509;32.858;-116.858;2023-04-25T01:44:45;7.47;;;3.83;;
53899;SDS011;40509;32.858;-116.858;2023-04-25T01:47:12;14.15;;;4.47;;
53899;SDS011;40509;32.858;-116.858;2023-04-25T01:49:39;8.40;;;4.63;;
53899;SDS011;40509;32.858;-116.858;2023-04-25T01:52:06;10.05;;;3.85;;
53899;SDS011;40509;32.858;-116.858;2023-04-25T01:54:34;22.63;;;5.63;;
53899;SDS011;40509;32.858;-116.858;2023-04-25T01:57:01;6.07;;;4.00;;
53899;SDS011;40509;32.858;-116.858;2023-04-25T01:59:32;7.18;;;3.60;;
53899;SDS011;40509;32.858;-116.858;2023-04-25T02:02:08;14.27;;;4.30;;
53899;SDS011;40509;32.858;-116.858;2023-04-25T02:04:36;11.60;;;4.13;;
53899;SDS011;40509;32.858;-116.858;2023-04-25T02:07:03;6.80;;;3.88;;
53899;SDS011;40509;32.858;-116.858;2023-04-25T02:09:43;9.23;;;3.60;;
53899;SDS011;40509;32.858;-116.858;2023-04-25T02:12:11;14.55;;;4.25;;
53899;SDS011;40509;32.858;-116.858;2023-04-25T02:14:59;4.18;;;3.58;;
53899;SDS011;40509;32.858;-116.858;2023-04-25T02:17:46;11.20;;;4.47;;
53899;SDS011;40509;32.858;-116.858;2023-04-25T02:20:14;6.68;;;4.30;;
53899;SDS011;40509;32.858;-116.858;2023-04-25T02:22:46;8.63;;;4.18;;
53899;SDS011;40509;32.858;-116.858;2023-04-25T02:25:14;6.60;;;4.20;;
53899;SDS011;40509;32.858;-116.858;2023-04-25T02:27:42;22.85;;;5.20;;
53899;SDS011;40509;32.858;-116.858;2023-04-25T02:30:09;9.25;;;4.47;;
53899;SDS011;40509;32.858;-116.858;2023-04-25T02:32:38;15.13;;;4.68;;
53899;SDS011;40509;32.858;-116.858;2023-04-25T02:35:05;8.65;;;4.55;;
53899;SDS011;40509;32.858;-116.858;2023-04-25T02:37:33;7.72;;;3.58;;
53899;SDS011;40509;32.858;-116.858;2023-04-25T02:40:02;13.90;;;3.90;;
53899;SDS011;40509;32.858;-116.858;2023-04-25T02:42:31;9.90;;;4.93;;
53899;SDS011;40509;32.858;-116.858;2023-04-25T02:44:59;6.97;;;2.97;;
53899;SDS011;40509;32.858;-116.858;2023-04-25T02:47:26;6.82;;;3.30;;
53899;SDS011;40509;32.858;-116.858;2023-04-25T02:49:54;10.77;;;3.88;;
53899;SDS011;40509;32.858;-116.858;2023-04-25T02:52:21;11.98;;;4.00;;
53899;SDS011;40509;32.858;-116.858;2023-04-25T02:54:56;9.27;;;3.92;;
53899;SDS011;40509;32.858;-116.858;2023-04-25T02:57:24;23.25;;;5.32;;
53899;SDS011;40509;32.858;-116.858;2023-04-25T02:59:51;9.27;;;4.07;;
53899;SDS011;40509;32.858;-116.858;2023-04-25T03:02:18;13.40;;;3.10;;
53899;SDS011;40509;32.858;-116.858;2023-04-25T03:04:46;15.38;;;4.15;;
53899;SDS011;40509;32.858;-116.858;2023-04-25T03:07:14;11.05;;;4.97;;
53899;SDS011;40509;32.858;-116.858;2023-04-25T03:09:41;15.65;;;3.63;;
53899;SDS011;40509;32.858;-116.858;2023-04-25T03:12:08;10.45;;;4.28;;
53899;SDS011;40509;32.858;-116.858;2023-04-25T03:14:36;15.50;;;4.05;;
53899;SDS011;40509;32.858;-116.858;2023-04-25T03:17:04;5.38;;;2.95;;
53899;SDS011;40509;32.858;-116.858;2023-04-25T03:19:34;9.43;;;4.05;;
53899;SDS011;40509;32.858;-116.858;2023-04-25T03:22:02;11.07;;;3.95;;
53899;SDS011;40509;32.858;-116.858;2023-04-25T03:24:29;13.75;;;3.65;;
53899;SDS011;40509;32.858;-116.858;2023-04-25T03:26:58;20.83;;;4.88;;
53899;SDS011;40509;32.858;-116.858;2023-04-25T03:29:25;7.68;;;3.47;;
53899;SDS011;40509;32.858;-116.858;2023-04-25T03:31:56;8.35;;;3.17;;
53899;SDS011;40509;32.858;-116.858;2023-04-25T03:34:23;12.30;;;4.07;;
53899;SDS011;40509;32.858;-116.858;2023-04-25T03:36:50;18.70;;;3.53;;
53899;SDS011;40509;32.858;-116.858;2023-04-25T03:43:10;14.00;;;3.42;;
53899;SDS011;40509;32.858;-116.858;2023-04-25T03:45:40;9.38;;;3.70;;
53899;SDS011;40509;32.858;-116.858;2023-04-25T03:48:08;13.57;;;4.15;;
53899;SDS011;40509;32.858;-116.858;2023-04-25T03:50:35;5.22;;;3.70;;
53899;SDS011;40509;32.858;-116.858;2023-04-25T03:53:03;10.38;;;3.90;;
53899;SDS011;40509;32.858;-116.858;2023-04-25T03:55:39;7.18;;;5.63;;
53899;SDS011;40509;32.858;-116.858;2023-04-25T03:58:08;22.33;;;8.32;;
53899;SDS011;40509;32.858;-116.858;2023-04-25T04:00:36;19.75;;;10.23;;
53899;SDS011;40509;32.858;-116.858;2023-04-25T04:03:03;21.10;;;11.10;;
53899;SDS011;40509;32.858;-116.858;2023-04-25T04:05:31;29.90;;;20.25;;
53899;SDS011;40509;32.858;-116.858;2023-04-25T04:07:58;23.95;;;11.90;;
53899;SDS011;40509;32.858;-116.858;2023-04-25T04:10:27;34.28;;;24.23;;
53899;SDS011;40509;32.858;-116.858;2023-04-25T04:12:54;37.92;;;30.10;;
53899;SDS011;40509;32.858;-116.858;2023-04-25T04:15:22;33.47;;;23.60;;
53899;SDS011;40509;32.858;-116.858;2023-04-25T04:17:50;41.42;;;25.20;;
53899;SDS011;40509;32.858;-116.858;2023-04-25T04:20:18;56.30;;;39.10;;
53899;SDS011;40509;32.858;-116.858;2023-04-25T04:22:46;45.08;;;32.05;;
53899;SDS011;40509;32.858;-116.858;2023-04-25T04:25:15;50.95;;;39.30;;
53899;SDS011;40509;32.858;-116.858;2023-04-25T04:28:06;52.08;;;41.10;;
53899;SDS011;40509;32.858;-116.858;2023-04-25T04:30:42;44.67;;;33.75;;
53899;SDS011;40509;32.858;-116.858;2023-04-25T04:33:14;52.88;;;39.85;;
53899;SDS011;40509;32.858;-116.858;2023-04-25T04:35:43;51.08;;;38.88;;
53899;SDS011;40509;32.858;-116.858;2023-04-25T04:38:11;57.13;;;39.20;;
53899;SDS011;40509;32.858;-116.858;2023-04-25T04:40:38;52.03;;;37.85;;
53899;SDS011;40509;32.858;-116.858;2023-04-25T04:43:32;46.78;;;34.67;;
53899;SDS011;40509;32.858;-116.858;2023-04-25T04:46:03;51.00;;;36.10;;
53899;SDS011;40509;32.858;-116.858;2023-04-25T04:48:51;54.42;;;39.33;;
53899;SDS011;40509;32.858;-116.858;2023-04-25T04:51:38;46.92;;;39.55;;
53899;SDS011;40509;32.858;-116.858;2023-04-25T04:54:26;46.55;;;37.15;;
53899;SDS011;40509;32.858;-116.858;2023-04-25T04:57:12;65.90;;;39.65;;
53899;SDS011;40509;32.858;-116.858;2023-04-25T05:00:14;62.80;;;40.15;;
53899;SDS011;40509;32.858;-116.858;2023-04-25T05:03:05;46.25;;;31.63;;
53899;SDS011;40509;32.858;-116.858;2023-04-25T05:05:48;49.45;;;35.38;;
53899;SDS011;40509;32.858;-116.858;2023-04-25T05:08:31;43.15;;;31.50;;
53899;SDS011;40509;32.858;-116.858;2023-04-25T05:11:23;44.42;;;34.70;;
53899;SDS011;40509;32.858;-116.858;2023-04-25T05:13:57;41.97;;;29.88;;
53899;SDS011;40509;32.858;-116.858;2023-04-25T05:16:42;41.15;;;33.00;;
53899;SDS011;40509;32.858;-116.858;2023-04-25T05:19:19;40.55;;;33.78;;
53899;SDS011;40509;32.858;-116.858;2023-04-25T05:21:52;42.42;;;29.40;;
53899;SDS011;40509;32.858;-116.858;2023-04-25T05:24:42;48.78;;;31.35;;
53899;SDS011;40509;32.858;-116.858;2023-04-25T05:27:33;42.38;;;30.58;;
53899;SDS011;40509;32.858;-116.858;2023-04-25T05:30:15;41.40;;;31.58;;
53899;SDS011;40509;32.858;-116.858;2023-04-25T05:33:05;44.97;;;32.15;;
53899;SDS011;40509;32.858;-116.858;2023-04-25T05:35:32;37.58;;;28.33;;
53899;SDS011;40509;32.858;-116.858;2023-04-25T05:38:00;37.42;;;28.13;;
53899;SDS011;40509;32.858;-116.858;2023-04-25T05:40:47;38.28;;;27.50;;
53899;SDS011;40509;32.858;-116.858;2023-04-25T05:43:32;37.30;;;30.40;;
53899;SDS011;40509;32.858;-116.858;2023-04-25T05:46:23;37.58;;;31.67;;
53899;SDS011;40509;32.858;-116.858;2023-04-25T05:49:20;39.28;;;30.65;;
53899;SDS011;40509;32.858;-116.858;2023-04-25T05:52:01;42.05;;;30.45;;
53899;SDS011;40509;32.858;-116.858;2023-04-25T05:54:57;40.45;;;31.23;;
53899;SDS011;40509;32.858;-116.858;2023-04-25T05:57:25;36.17;;;28.55;;
53899;SDS011;40509;32.858;-116.858;2023-04-25T05:59:55;42.22;;;28.77;;
53899;SDS011;40509;32.858;-116.858;2023-04-25T06:02:39;31.00;;;27.63;;
53899;SDS011;40509;32.858;-116.858;2023-04-25T06:05:12;33.40;;;28.90;;
53899;SDS011;40509;32.858;-116.858;2023-04-25T06:07:40;32.22;;;26.17;;
53899;SDS011;40509;32.858;-116.858;2023-04-25T06:10:08;32.85;;;26.48;;
53899;SDS011;40509;32.858;-116.858;2023-04-25T06:12:36;42.90;;;28.10;;
53899;SDS011;40509;32.858;-116.858;2023-04-25T06:15:05;40.38;;;26.83;;
53899;SDS011;40509;32.858;-116.858;2023-04-25T06:17:33;30.70;;;25.48;;
53899;SDS011;40509;32.858;-116.858;2023-04-25T06:20:02;36.25;;;27.15;;
53899;SDS011;40509;32.858;-116.858;2023-04-25T06:22:30;34.45;;;25.98;;
53899;SDS011;40509;32.858;-116.858;2023-04-25T06:24:58;35.60;;;25.20;;
53899;SDS011;40509;32.858;-116.858;2023-04-25T06:27:28;37.75;;;25.90;;
53899;SDS011;40509;32.858;-116.858;2023-04-25T06:29:56;31.55;;;26.88;;
53899;SDS011;40509;32.858;-116.858;2023-04-25T06:32:23;30.80;;;25.45;;
53899;SDS011;40509;32.858;-116.858;2023-04-25T06:34:50;28.55;;;24.58;;
53899;SDS011;40509;32.858;-116.858;2023-04-25T06:37:17;37.00;;;25.88;;
53899;SDS011;40509;32.858;-116.858;2023-04-25T06:39:44;28.52;;;24.60;;
53899;SDS011;40509;32.858;-116.858;2023-04-25T06:42:11;31.92;;;25.60;;
53899;SDS011;40509;32.858;-116.858;2023-04-25T06:44:45;34.67;;;27.20;;
53899;SDS011;40509;32.858;-116.858;2023-04-25T06:47:14;34.03;;;26.05;;
53899;SDS011;40509;32.858;-116.858;2023-04-25T06:49:43;36.85;;;26.88;;
53899;SDS011;40509;32.858;-116.858;2023-04-25T06:52:11;34.10;;;24.77;;
53899;SDS011;40509;32.858;-116.858;2023-04-25T06:54:39;38.45;;;23.42;;
53899;SDS011;40509;32.858;-116.858;2023-04-25T06:57:22;36.35;;;24.05;;
53899;SDS011;40509;32.858;-116.858;2023-04-25T06:59:50;30.27;;;23.65;;
53899;SDS011;40509;32.858;-116.858;2023-04-25T07:02:17;26.20;;;22.05;;
53899;SDS011;40509;32.858;-116.858;2023-04-25T07:04:45;35.88;;;24.77;;
53899;SDS011;40509;32.858;-116.858;2023-04-25T07:07:12;29.08;;;23.10;;
53899;SDS011;40509;32.858;-116.858;2023-04-25T07:09:46;29.65;;;21.70;;
53899;SDS011;40509;32.858;-116.858;2023-04-25T07:12:15;30.80;;;21.65;;
53899;SDS011;40509;32.858;-116.858;2023-04-25T07:14:43;29.05;;;21.77;;
53899;SDS011;40509;32.858;-116.858;2023-04-25T07:17:11;27.10;;;20.75;;
53899;SDS011;40509;32.858;-116.858;2023-04-25T07:19:38;26.70;;;21.67;;
53899;SDS011;40509;32.858;-116.858;2023-04-25T07:22:07;27.15;;;21.35;;
53899;SDS011;40509;32.858;-116.858;2023-04-25T07:24:36;28.52;;;21.48;;
53899;SDS011;40509;32.858;-116.858;2023-04-25T07:27:04;27.55;;;22.83;;
53899;SDS011;40509;32.858;-116.858;2023-04-25T07:29:55;26.58;;;22.13;;
53899;SDS011;40509;32.858;-116.858;2023-04-25T07:32:23;22.38;;;20.02;;
53899;SDS011;40509;32.858;-116.858;2023-04-25T07:34:50;23.75;;;20.50;;
53899;SDS011;40509;32.858;-116.858;2023-04-25T07:37:18;24.00;;;20.38;;
53899;SDS011;40509;32.858;-116.858;2023-04-25T07:40:00;23.00;;;20.40;;
53899;SDS011;40509;32.858;-116.858;2023-04-25T07:42:30;23.42;;;20.02;;
53899;SDS011;40509;32.858;-116.858;2023-04-25T07:44:57;28.67;;;19.40;;
53899;SDS011;40509;32.858;-116.858;2023-04-25T07:47:25;23.05;;;18.75;;
53899;SDS011;40509;32.858;-116.858;2023-04-25T07:49:52;26.38;;;20.23;;
53899;SDS011;40509;32.858;-116.858;2023-04-25T07:52:20;24.98;;;19.35;;
53899;SDS011;40509;32.858;-116.858;2023-04-25T07:54:52;24.75;;;16.75;;
53899;SDS011;40509;32.858;-116.858;2023-04-25T07:57:27;26.42;;;21.55;;
53899;SDS011;40509;32.858;-116.858;2023-04-25T07:59:56;27.70;;;18.20;;
53899;SDS011;40509;32.858;-116.858;2023-04-25T08:02:24;25.13;;;20.98;;
53899;SDS011;40509;32.858;-116.858;2023-04-25T08:04:54;20.03;;;16.73;;
53899;SDS011;40509;32.858;-116.858;2023-04-25T08:07:22;23.13;;;17.23;;
53899;SDS011;40509;32.858;-116.858;2023-04-25T08:09:53;24.38;;;18.83;;
53899;SDS011;40509;32.858;-116.858;2023-04-25T08:12:25;25.50;;;18.27;;
53899;SDS011;40509;32.858;-116.858;2023-04-25T08:14:53;21.98;;;17.00;;
53899;SDS011;40509;32.858;-116.858;2023-04-25T08:17:23;25.85;;;19.25;;
53899;SDS011;40509;32.858;-116.858;2023-04-25T08:19:50;18.63;;;16.52;;
53899;SDS011;40509;32.858;-116.858;2023-04-25T08:22:29;18.15;;;15.90;;
53899;SDS011;40509;32.858;-116.858;2023-04-25T08:25:13;20.52;;;15.02;;
53899;SDS011;40509;32.858;-116.858;2023-04-25T08:27:41;21.65;;;18.58;;
53899;SDS011;40509;32.858;-116.858;2023-04-25T08:30:09;20.20;;;16.70;;
53899;SDS011;40509;32.858;-116.858;2023-04-25T08:32:38;21.63;;;16.75;;
53899;SDS011;40509;32.858;-116.858;2023-04-25T08:35:24;20.05;;;16.70;;
53899;SDS011;40509;32.858;-116.858;2023-04-25T08:37:52;24.52;;;18.50;;
53899;SDS011;40509;32.858;-116.858;2023-04-25T08:40:19;23.42;;;15.68;;
53899;SDS011;40509;32.858;-116.858;2023-04-25T08:42:59;18.50;;;16.50;;
53899;SDS011;40509;32.858;-116.858;2023-04-25T08:45:30;16.98;;;14.30;;
53899;SDS011;40509;32.858;-116.858;2023-04-25T08:47:59;19.58;;;16.10;;
53899;SDS011;40509;32.858;-116.858;2023-04-25T08:50:28;17.65;;;15.68;;
53899;SDS011;40509;32.858;-116.858;2023-04-25T08:52:57;19.15;;;16.33;;
53899;SDS011;40509;32.858;-116.858;2023-04-25T08:55:27;19.80;;;14.98;;
53899;SDS011;40509;32.858;-116.858;2023-04-25T08:57:59;16.52;;;14.18;;
53899;SDS011;40509;32.858;-116.858;2023-04-25T09:00:27;19.48;;;15.93;;
53899;SDS011;40509;32.858;-116.858;2023-04-25T09:02:56;20.33;;;14.80;;
53899;SDS011;40509;32.858;-116.858;2023-04-25T09:05:28;17.23;;;15.27;;
53899;SDS011;40509;32.858;-116.858;2023-04-25T09:07:55;18.25;;;15.73;;
53899;SDS011;40509;32.858;-116.858;2023-04-25T09:10:25;14.35;;;12.85;;
53899;SDS011;40509;32.858;-116.858;2023-04-25T09:15:57;19.50;;;13.77;;
53899;SDS011;40509;32.858;-116.858;2023-04-25T09:18:53;24.55;;;14.20;;
53899;SDS011;40509;32.858;-116.858;2023-04-25T09:21:22;15.93;;;13.25;;
53899;SDS011;40509;32.858;-116.858;2023-04-25T09:23:49;20.65;;;15.43;;
53899;SDS011;40509;32.858;-116.858;2023-04-25T09:26:18;17.50;;;14.60;;
53899;SDS011;40509;32.858;-116.858;2023-04-25T09:28:47;16.75;;;13.93;;
53899;SDS011;40509;32.858;-116.858;2023-04-25T09:31:23;16.60;;;13.27;;
53899;SDS011;40509;32.858;-116.858;2023-04-25T09:34:00;16.75;;;13.68;;
53899;SDS011;40509;32.858;-116.858;2023-04-25T09:36:30;16.40;;;13.82;;
53899;SDS011;40509;32.858;-116.858;2023-04-25T09:39:13;18.25;;;13.48;;
53899;SDS011;40509;32.858;-116.858;2023-04-25T09:41:44;13.82;;;12.13;;
53899;SDS011;40509;32.858;-116.858;2023-04-25T09:44:12;18.55;;;13.85;;
53899;SDS011;40509;32.858;-116.858;2023-04-25T09:46:42;16.52;;;13.40;;
53899;SDS011;40509;32.858;-116.858;2023-04-25T09:49:16;18.45;;;13.45;;
53899;SDS011;40509;32.858;-116.858;2023-04-25T09:52:01;17.50;;;12.65;;
53899;SDS011;40509;32.858;-116.858;2023-04-25T09:54:34;16.58;;;12.88;;
53899;SDS011;40509;32.858;-116.858;2023-04-25T09:57:15;17.88;;;13.35;;
53899;SDS011;40509;32.858;-116.858;2023-04-25T09:59:44;15.25;;;12.35;;
53899;SDS011;40509;32.858;-116.858;2023-04-25T10:02:12;14.82;;;11.75;;
53899;SDS011;40509;32.858;-116.858;2023-04-25T10:04:42;18.33;;;13.73;;
53899;SDS011;40509;32.858;-116.858;2023-04-25T10:07:25;15.75;;;12.18;;
53899;SDS011;40509;32.858;-116.858;2023-04-25T10:10:02;16.15;;;14.02;;
53899;SDS011;40509;32.858;-116.858;2023-04-25T10:12:32;12.82;;;11.48;;
53899;SDS011;40509;32.858;-116.858;2023-04-25T10:15:00;13.57;;;11.57;;
53899;SDS011;40509;32.858;-116.858;2023-04-25T10:17:29;14.15;;;11.65;;
53899;SDS011;40509;32.858;-116.858;2023-04-25T10:19:57;12.80;;;11.48;;
53899;SDS011;40509;32.858;-116.858;2023-04-25T10:22:31;13.88;;;12.13;;
53899;SDS011;40509;32.858;-116.858;2023-04-25T10:25:01;16.00;;;11.77;;
53899;SDS011;40509;32.858;-116.858;2023-04-25T10:27:32;13.60;;;10.13;;
53899;SDS011;40509;32.858;-116.858;2023-04-25T10:30:08;13.65;;;12.05;;
53899;SDS011;40509;32.858;-116.858;2023-04-25T10:32:38;13.35;;;11.38;;
53899;SDS011;40509;32.858;-116.858;2023-04-25T10:35:10;12.07;;;10.88;;
53899;SDS011;40509;32.858;-116.858;2023-04-25T10:40:32;15.32;;;12.73;;
53899;SDS011;40509;32.858;-116.858;2023-04-25T10:46:02;16.70;;;12.15;;
53899;SDS011;40509;32.858;-116.858;2023-04-25T10:48:43;11.13;;;9.85;;
53899;SDS011;40509;32.858;-116.858;2023-04-25T10:56:22;12.35;;;11.02;;
53899;SDS011;40509;32.858;-116.858;2023-04-25T10:59:16;11.95;;;10.80;;
53899;SDS011;40509;32.858;-116.858;2023-04-25T11:01:44;12.90;;;11.53;;
53899;SDS011;40509;32.858;-116.858;2023-04-25T11:04:19;16.75;;;11.40;;
53899;SDS011;40509;32.858;-116.858;2023-04-25T11:09:23;11.80;;;10.55;;
53899;SDS011;40509;32.858;-116.858;2023-04-25T11:11:54;12.77;;;10.35;;
53899;SDS011;40509;32.858;-116.858;2023-04-25T11:14:26;11.65;;;10.18;;
53899;SDS011;40509;32.858;-116.858;2023-04-25T11:16:54;13.02;;;11.27;;
53899;SDS011;40509;32.858;-116.858;2023-04-25T11:19:22;14.05;;;11.88;;
53899;SDS011;40509;32.858;-116.858;2023-04-25T11:21:50;12.25;;;9.60;;
53899;SDS011;40509;32.858;-116.858;2023-04-25T11:24:30;12.65;;;9.45;;
53899;SDS011;40509;32.858;-116.858;2023-04-25T11:26:59;11.68;;;10.27;;
53899;SDS011;40509;32.858;-116.858;2023-04-25T11:29:31;13.23;;;10.20;;
53899;SDS011;40509;32.858;-116.858;2023-04-25T11:32:00;13.52;;;10.82;;
53899;SDS011;40509;32.858;-116.858;2023-04-25T11:34:28;10.45;;;9.23;;
53899;SDS011;40509;32.858;-116.858;2023-04-25T11:36:57;12.95;;;11.23;;
53899;SDS011;40509;32.858;-116.858;2023-04-25T11:39:24;10.90;;;9.65;;
53899;SDS011;40509;32.858;-116.858;2023-04-25T11:41:52;10.30;;;9.20;;
53899;SDS011;40509;32.858;-116.858;2023-04-25T11:44:21;11.80;;;10.57;;
53899;SDS011;40509;32.858;-116.858;2023-04-25T11:46:49;11.77;;;9.93;;
53899;SDS011;40509;32.858;-116.858;2023-04-25T11:49:16;9.32;;;8.43;;
53899;SDS011;40509;32.858;-116.858;2023-04-25T11:51:45;11.68;;;9.85;;
53899;SDS011;40509;32.858;-116.858;2023-04-25T11:54:14;10.02;;;8.52;;
53899;SDS011;40509;32.858;-116.858;2023-04-25T11:56:45;12.75;;;10.25;;
53899;SDS011;40509;32.858;-116.858;2023-04-25T11:59:13;11.07;;;9.90;;
53899;SDS011;40509;32.858;-116.858;2023-04-25T12:01:47;11.75;;;9.88;;
53899;SDS011;40509;32.858;-116.858;2023-04-25T12:04:16;11.15;;;8.98;;
53899;SDS011;40509;32.858;-116.858;2023-04-25T12:06:45;10.93;;;9.02;;
53899;SDS011;40509;32.858;-116.858;2023-04-25T12:09:15;12.18;;;10.52;;
53899;SDS011;40509;32.858;-116.858;2023-04-25T12:11:45;10.00;;;8.68;;
53899;SDS011;40509;32.858;-116.858;2023-04-25T12:14:21;12.02;;;9.45;;
53899;SDS011;40509;32.858;-116.858;2023-04-25T12:16:56;10.68;;;8.68;;
53899;SDS011;40509;32.858;-116.858;2023-04-25T12:19:25;9.48;;;8.50;;
53899;SDS011;40509;32.858;-116.858;2023-04-25T12:21:59;9.73;;;8.73;;
53899;SDS011;40509;32.858;-116.858;2023-04-25T12:24:29;10.65;;;8.25;;
53899;SDS011;40509;32.858;-116.858;2023-04-25T12:29:32;12.95;;;8.35;;
53899;SDS011;40509;32.858;-116.858;2023-04-25T12:32:00;11.57;;;8.77;;
53899;SDS011;40509;32.858;-116.858;2023-04-25T12:34:28;9.38;;;8.43;;
53899;SDS011;40509;32.858;-116.858;2023-04-25T12:36:55;9.95;;;8.95;;
53899;SDS011;40509;32.858;-116.858;2023-04-25T12:39:23;9.77;;;8.65;;
53899;SDS011;40509;32.858;-116.858;2023-04-25T12:41:54;9.27;;;8.38;;
53899;SDS011;40509;32.858;-116.858;2023-04-25T12:44:21;12.85;;;8.50;;
53899;SDS011;40509;32.858;-116.858;2023-04-25T12:46:48;11.05;;;8.57;;
53899;SDS011;40509;32.858;-116.858;2023-04-25T12:49:16;8.98;;;7.82;;
53899;SDS011;40509;32.858;-116.858;2023-04-25T12:51:43;9.55;;;8.48;;
53899;SDS011;40509;32.858;-116.858;2023-04-25T12:54:11;11.18;;;8.20;;
53899;SDS011;40509;32.858;-116.858;2023-04-25T12:56:38;9.68;;;8.68;;
53899;SDS011;40509;32.858;-116.858;2023-04-25T12:59:05;12.10;;;9.07;;
53899;SDS011;40509;32.858;-116.858;2023-04-25T13:01:33;12.05;;;8.43;;
53899;SDS011;40509;32.858;-116.858;2023-04-25T13:04:00;10.77;;;7.97;;
53899;SDS011;40509;32.858;-116.858;2023-04-25T13:06:27;9.02;;;8.13;;
53899;SDS011;40509;32.858;-116.858;2023-04-25T13:08:56;8.75;;;7.20;;
53899;SDS011;40509;32.858;-116.858;2023-04-25T13:11:23;8.30;;;7.50;;
53899;SDS011;40509;32.858;-116.858;2023-04-25T13:13:51;8.75;;;7.57;;
53899;SDS011;40509;32.858;-116.858;2023-04-25T13:20:09;8.65;;;7.70;;
53899;SDS011;40509;32.858;-116.858;2023-04-25T13:22:37;9.98;;;7.80;;
53899;SDS011;40509;32.858;-116.858;2023-04-25T13:25:06;8.65;;;7.68;;
53899;SDS011;40509;32.858;-116.858;2023-04-25T13:27:35;10.88;;;7.55;;
53899;SDS011;40509;32.858;-116.858;2023-04-25T13:30:03;9.50;;;6.95;;
53899;SDS011;40509;32.858;-116.858;2023-04-25T13:32:34;10.00;;;8.00;;
53899;SDS011;40509;32.858;-116.858;2023-04-25T13:35:05;8.50;;;7.40;;
53899;SDS011;40509;32.858;-116.858;2023-04-25T13:37:37;7.97;;;7.18;;
53899;SDS011;40509;32.858;-116.858;2023-04-25T13:40:06;8.40;;;7.32;;
53899;SDS011;40509;32.858;-116.858;2023-04-25T13:42:36;8.55;;;7.03;;
53899;SDS011;40509;32.858;-116.858;2023-04-25T13:45:04;10.70;;;7.93;;
53899;SDS011;40509;32.858;-116.858;2023-04-25T13:51:52;9.68;;;7.10;;
53899;SDS011;40509;32.858;-116.858;2023-04-25T13:54:19;10.95;;;8.10;;
53899;SDS011;40509;32.858;-116.858;2023-04-25T13:56:46;8.02;;;6.95;;
53899;SDS011;40509;32.858;-116.858;2023-04-25T13:59:15;8.82;;;6.70;;
53899;SDS011;40509;32.858;-116.858;2023-04-25T14:01:42;8.93;;;6.82;;
53899;SDS011;40509;32.858;-116.858;2023-04-25T14:04:10;7.90;;;5.88;;
53899;SDS011;40509;32.858;-116.858;2023-04-25T14:10:44;8.50;;;6.63;;
53899;SDS011;40509;32.858;-116.858;2023-04-25T14:13:12;6.47;;;5.60;;
53899;SDS011;40509;32.858;-116.858;2023-04-25T14:15:40;8.55;;;6.88;;
53899;SDS011;40509;32.858;-116.858;2023-04-25T14:18:07;12.48;;;7.50;;
53899;SDS011;40509;32.858;-116.858;2023-04-25T14:20:34;7.75;;;6.97;;
53899;SDS011;40509;32.858;-116.858;2023-04-25T14:23:01;10.10;;;5.82;;
53899;SDS011;40509;32.858;-116.858;2023-04-25T14:25:29;7.85;;;6.65;;
53899;SDS011;40509;32.858;-116.858;2023-04-25T14:27:56;7.38;;;5.80;;
53899;SDS011;40509;32.858;-116.858;2023-04-25T14:30:24;7.03;;;5.65;;
53899;SDS011;40509;32.858;-116.858;2023-04-25T14:32:51;6.60;;;6.00;;
53899;SDS011;40509;32.858;-116.858;2023-04-25T14:38:35;8.30;;;7.05;;
53899;SDS011;40509;32.858;-116.858;2023-04-25T14:41:03;6.85;;;6.15;;
53899;SDS011;40509;32.858;-116.858;2023-04-25T14:43:30;10.85;;;7.30;;
53899;SDS011;40509;32.858;-116.858;2023-04-25T14:45:57;10.05;;;8.05;;
53899;SDS011;40509;32.858;-116.858;2023-04-25T14:48:25;8.95;;;6.65;;
53899;SDS011;40509;32.858;-116.858;2023-04-25T14:50:52;13.48;;;7.53;;
53899;SDS011;40509;32.858;-116.858;2023-04-25T14:53:20;7.07;;;6.38;;
53899;SDS011;40509;32.858;-116.858;2023-04-25T14:55:47;6.93;;;6.13;;